Time;durP1;ratioP1;P1;durP2;ratioP2;P2;SDS_P1;SDS_P2;PMS_P1;PMS_P2;Temp;Humidity;BMP_temperature;BMP_pressure;BME280_temperature;BME280_humidity;BME280_pressure;Samples;Min_cycle;Max_cycle;Signal;HPM_P1;HPM_P2
2021/05/31 04:16:50;;;;;;;5.68;3.70;;;;;;;5.88;79.46;99311.69;5287179;23;20044;-74
2021/05/31 04:19:18;;;;;;;7.55;3.85;;;;;;;5.90;79.10;99304.88;4917041;29;20047;-74
2021/05/31 04:21:46;;;;;;;6.53;3.72;;;;;;;6.02;78.65;99308.41;4916817;29;20024;-73
2021/05/31 04:24:12;;;;;;;6.75;3.38;;;;;;;6.24;77.56;99305.19;4917103;29;20425;-74
2021/05/31 04:26:38;;;;;;;4.38;3.20;;;;;;;6.51;75.87;99298.50;4916655;29;20047;-74
2021/05/31 04:29:05;;;;;;;6.25;3.65;;;;;;;6.68;74.90;99302.06;4929780;23;20028;-72
2021/05/31 04:31:31;;;;;;;6.15;3.72;;;;;;;6.88;73.93;99297.88;4916201;29;20036;-72
2021/05/31 04:33:56;;;;;;;5.40;3.83;;;;;;;6.96;73.86;99303.03;4915186;29;20036;-72
2021/05/31 04:36:22;;;;;;;8.20;3.50;;;;;;;6.93;73.80;99298.75;4899590;29;20112;-72
2021/05/31 04:38:47;;;;;;;7.35;3.83;;;;;;;7.06;73.79;99297.09;4915914;29;20107;-72
2021/05/31 04:41:13;;;;;;;8.23;3.55;;;;;;;7.09;74.10;99298.81;4908646;29;20099;-72
2021/05/31 04:43:38;;;;;;;5.93;3.28;;;;;;;7.21;74.07;99298.88;4904725;29;20120;-73
2021/05/31 04:46:04;;;;;;;4.22;2.80;;;;;;;7.31;73.51;99292.03;4904817;29;20063;-73
2021/05/31 04:48:32;;;;;;;5.15;3.20;;;;;;;7.41;73.23;99294.66;4906157;29;20072;-73
2021/05/31 04:50:58;;;;;;;5.53;3.40;;;;;;;7.43;73.34;99298.09;4904370;29;20027;-73
2021/05/31 04:53:25;;;;;;;8.00;3.58;;;;;;;7.59;72.88;99295.53;4906642;29;20743;-72
2021/05/31 04:55:52;;;;;;;9.30;3.50;;;;;;;7.60;72.82;99292.97;4907841;29;20036;-73
2021/05/31 04:58:18;;;;;;;4.45;3.20;;;;;;;7.74;72.63;99295.59;4896540;29;20072;-72
2021/05/31 05:00:44;;;;;;;7.10;3.30;;;;;;;7.80;72.25;99294.75;4897199;29;20032;-73
2021/05/31 05:03:09;;;;;;;5.28;3.80;;;;;;;7.80;72.06;99290.44;4904096;29;20060;-72
2021/05/31 05:05:34;;;;;;;5.28;3.35;;;;;;;8.17;71.45;99301.66;4908315;29;20486;-72
2021/05/31 05:08:00;;;;;;;5.13;3.17;;;;;;;8.39;70.71;99301.66;4904135;29;20367;-72
2021/05/31 05:10:25;;;;;;;3.85;3.30;;;;;;;8.48;70.01;99304.25;4907643;29;20070;-72
2021/05/31 05:12:52;;;;;;;4.15;2.83;;;;;;;8.58;69.73;99303.38;4907522;29;20035;-72
2021/05/31 05:15:19;;;;;;;6.03;3.15;;;;;;;8.69;69.18;99296.44;4901646;29;20080;-72
2021/05/31 05:17:46;;;;;;;7.63;3.03;;;;;;;8.78;69.02;99300.75;4908311;29;20039;-73
2021/05/31 05:20:13;;;;;;;5.53;3.13;;;;;;;8.95;68.53;99293.81;4892090;29;20415;-73
2021/05/31 05:22:38;;;;;;;5.07;3.45;;;;;;;9.18;68.72;99293.72;4905094;29;20544;-73
2021/05/31 05:25:05;;;;;;;4.60;3.10;;;;;;;9.31;67.61;99294.53;4902205;29;20028;-73
2021/05/31 05:27:31;;;;;;;5.43;3.55;;;;;;;9.49;66.80;99289.28;4902617;29;20029;-73
2021/05/31 05:29:56;;;;;;;6.53;2.97;;;;;;;9.63;66.52;99289.19;4901354;29;20042;-73
2021/05/31 05:32:21;;;;;;;4.25;3.25;;;;;;;9.62;66.56;99292.66;4907968;29;20466;-73
2021/05/31 05:34:48;;;;;;;3.75;3.13;;;;;;;9.83;65.55;99296.84;4905588;29;20503;-73
2021/05/31 05:37:22;;;;;;;3.20;2.90;;;;;;;9.89;65.87;99294.19;4909384;29;20020;-73
2021/05/31 05:40:12;;;;;;;3.08;2.80;;;;;;;10.07;64.54;99300.13;4906712;29;20028;-73
2021/05/31 05:45:18;;;;;;;6.53;3.30;;;;;;;10.15;63.16;99298.31;4904411;29;20059;-72
2021/05/31 05:47:45;;;;;;;5.25;3.10;;;;;;;10.35;63.71;99301.66;4903657;29;20040;-75
2021/05/31 05:50:15;;;;;;;3.67;2.63;;;;;;;10.57;62.11;99296.25;4908671;29;20170;-74
2021/05/31 05:52:40;;;;;;;4.30;3.05;;;;;;;10.63;61.41;99297.03;4887359;29;20444;-75
2021/05/31 05:55:07;;;;;;;5.03;3.35;;;;;;;10.53;61.16;99293.69;4912148;29;20093;-74
2021/05/31 05:57:34;;;;;;;5.75;3.42;;;;;;;10.91;60.94;99300.22;4906120;29;20043;-75
2021/05/31 06:00:02;;;;;;;5.13;3.15;;;;;;;11.12;60.94;99295.66;4913326;29;20024;-73
2021/05/31 06:02:28;;;;;;;9.43;3.00;;;;;;;11.23;59.92;99283.44;4908758;29;20020;-73
2021/05/31 06:04:53;;;;;;;4.75;2.97;;;;;;;11.47;59.97;99298.69;4904702;29;20241;-73
2021/05/31 06:07:18;;;;;;;3.35;3.05;;;;;;;11.62;59.50;99291.56;4894337;29;20028;-73
2021/05/31 06:09:44;;;;;;;5.85;3.20;;;;;;;11.69;58.09;99293.19;4913415;29;20047;-74
2021/05/31 06:12:09;;;;;;;6.18;2.80;;;;;;;11.96;59.10;99289.38;4906906;29;20520;-74
2021/05/31 06:14:34;;;;;;;5.28;3.00;;;;;;;12.12;57.18;99295.19;4906460;29;20475;-74
2021/05/31 06:17:00;;;;;;;4.75;2.85;;;;;;;12.04;56.96;99295.31;4908464;29;20031;-74
2021/05/31 06:19:28;;;;;;;4.35;3.17;;;;;;;12.43;56.39;99292.94;4905926;29;20457;-74
2021/05/31 06:21:53;;;;;;;8.07;2.88;;;;;;;12.46;56.19;99298.94;4904846;29;20430;-74
2021/05/31 06:24:18;;;;;;;6.05;2.83;;;;;;;12.58;55.74;99296.13;4907309;29;20023;-74
2021/05/31 06:26:44;;;;;;;4.85;3.17;;;;;;;12.71;55.32;99298.50;4907988;29;20028;-74
2021/05/31 06:29:09;;;;;;;11.10;2.85;;;;;;;12.96;55.55;99294.56;4907926;29;20036;-74
2021/05/31 06:31:34;;;;;;;4.38;2.88;;;;;;;13.21;53.52;99296.69;4910876;29;20032;-74
2021/05/31 06:34:00;;;;;;;5.35;2.20;;;;;;;13.46;53.07;99292.69;4904246;29;20027;-74
2021/05/31 06:36:26;;;;;;;8.20;2.60;;;;;;;13.53;53.03;99296.03;4908567;29;20035;-73
2021/05/31 06:38:51;;;;;;;3.58;2.53;;;;;;;13.97;53.25;99292.41;4898646;29;20593;-73
2021/05/31 06:41:16;;;;;;;5.38;3.45;;;;;;;14.15;54.54;99297.19;4911668;29;20111;-73
2021/05/31 06:43:42;;;;;;;3.80;2.75;;;;;;;14.64;51.15;99289.91;4905391;29;20031;-73
2021/05/31 06:46:08;;;;;;;6.05;2.40;;;;;;;15.35;49.13;99284.47;4904490;29;20485;-73
2021/05/31 06:48:33;;;;;;;3.40;2.50;;;;;;;15.34;48.94;99287.97;4905541;29;20121;-73
2021/05/31 06:50:59;;;;;;;5.72;2.53;;;;;;;16.11;46.60;99281.28;4903501;29;20070;-73
2021/05/31 06:53:24;;;;;;;3.63;2.13;;;;;;;18.73;40.76;99274.94;4903776;29;20020;-73
2021/05/31 06:55:49;;;;;;;6.30;2.70;;;;;;;19.48;38.70;99266.31;4905591;29;20111;-73
2021/05/31 06:58:15;;;;;;;3.33;2.45;;;;;;;20.39;37.13;99272.50;4906372;29;20025;-73
2021/05/31 07:00:42;;;;;;;3.92;2.05;;;;;;;20.73;36.01;99272.50;4909797;29;20031;-73
2021/05/31 07:03:08;;;;;;;2.45;2.03;;;;;;;21.30;34.84;99270.41;4907824;29;20107;-73
2021/05/31 07:05:33;;;;;;;3.05;2.28;;;;;;;21.24;34.47;99265.44;4905143;29;20032;-73
2021/05/31 07:07:59;;;;;;;2.22;2.00;;;;;;;22.39;33.45;99266.13;4906629;29;20031;-73
2021/05/31 07:10:27;;;;;;;5.45;1.73;;;;;;;22.10;32.55;99273.91;4906311;29;20025;-73
2021/05/31 07:12:53;;;;;;;4.68;1.65;;;;;;;22.22;31.63;99267.09;4907234;29;20039;-74
2021/05/31 07:15:20;;;;;;;2.47;1.60;;;;;;;22.25;32.31;99267.75;4907047;29;20056;-74
2021/05/31 07:17:46;;;;;;;5.47;1.75;;;;;;;22.00;30.85;99257.75;4906578;29;20024;-74
2021/05/31 07:20:15;;;;;;;4.40;1.70;;;;;;;22.46;31.22;99254.25;4901726;29;20052;-73
2021/05/31 07:22:43;;;;;;;3.08;1.55;;;;;;;22.57;30.40;99257.94;4902857;29;20493;-73
2021/05/31 07:25:09;;;;;;;6.03;1.60;;;;;;;23.37;29.04;99257.53;4900734;29;20032;-73
2021/05/31 07:27:35;;;;;;;3.45;1.52;;;;;;;23.01;28.78;99256.22;4905400;29;20128;-73
2021/05/31 07:30:02;;;;;;;3.50;1.48;;;;;;;21.59;30.92;99265.34;4904648;29;20539;-74
2021/05/31 07:32:28;;;;;;;2.15;1.45;;;;;;;21.71;28.50;99266.41;4907939;29;20047;-73
2021/05/31 07:34:53;;;;;;;2.10;1.20;;;;;;;23.91;26.04;99257.63;4907351;29;20477;-74
2021/05/31 07:37:18;;;;;;;3.72;1.35;;;;;;;25.52;25.48;99255.47;4904827;29;20111;-73
2021/05/31 07:39:44;;;;;;;1.35;1.23;;;;;;;24.06;26.01;99267.22;4906970;29;20028;-73
2021/05/31 07:42:09;;;;;;;2.45;1.45;;;;;;;23.42;27.18;99266.03;4911770;29;20463;-73
2021/05/31 07:44:35;;;;;;;1.50;1.40;;;;;;;23.05;28.46;99253.28;4905181;29;20028;-73
2021/05/31 07:47:00;;;;;;;2.03;1.25;;;;;;;20.56;29.57;99279.59;4903689;29;20031;-74
2021/05/31 07:49:26;;;;;;;1.40;1.30;;;;;;;20.08;30.62;99262.66;4906145;29;20046;-73
2021/05/31 07:51:54;;;;;;;2.05;1.30;;;;;;;19.77;30.49;99272.00;4903815;29;20093;-73
2021/05/31 07:54:21;;;;;;;2.65;1.13;;;;;;;21.99;27.87;99271.00;4907461;29;20024;-73
2021/05/31 07:56:46;;;;;;;3.60;1.60;;;;;;;20.71;27.92;99274.38;4904368;29;20457;-73
2021/05/31 07:59:12;;;;;;;1.45;1.35;;;;;;;20.24;29.52;99274.97;4909784;29;20147;-73
2021/05/31 08:01:37;;;;;;;1.30;1.20;;;;;;;20.40;29.67;99279.47;4906888;29;20112;-73
2021/05/31 08:04:05;;;;;;;1.33;1.10;;;;;;;21.60;28.20;99264.38;4910707;29;20024;-73
2021/05/31 08:06:32;;;;;;;1.15;1.13;;;;;;;21.80;29.13;99269.41;4900453;29;20056;-73
2021/05/31 08:08:58;;;;;;;3.67;1.30;;;;;;;22.26;27.63;99264.19;4904673;29;20036;-73
2021/05/31 08:11:23;;;;;;;4.47;1.20;;;;;;;23.32;26.81;99265.75;4894271;29;20028;-73
2021/05/31 08:13:48;;;;;;;1.20;1.20;;;;;;;23.96;25.81;99252.88;4904065;29;20040;-73
2021/05/31 08:16:17;;;;;;;1.55;1.27;;;;;;;22.28;27.15;99262.28;4902102;29;20028;-73
2021/05/31 08:18:43;;;;;;;2.00;1.20;;;;;;;22.07;27.49;99263.50;4896439;29;20033;-73
2021/05/31 08:21:08;;;;;;;1.77;1.25;;;;;;;21.10;28.64;99260.06;4901458;29;20096;-73
2021/05/31 08:23:33;;;;;;;1.50;1.30;;;;;;;20.12;29.86;99274.72;4900386;29;20119;-73
2021/05/31 08:25:59;;;;;;;1.98;1.48;;;;;;;23.11;26.93;99245.94;4906722;29;20110;-73
2021/05/31 08:28:24;;;;;;;5.78;1.25;;;;;;;22.46;28.25;99251.59;4906686;29;20188;-73
2021/05/31 08:30:49;;;;;;;1.73;1.30;;;;;;;23.60;26.46;99249.00;4904225;29;20091;-73
2021/05/31 08:33:15;;;;;;;1.92;1.40;;;;;;;23.82;25.31;99244.03;4897266;29;20107;-73
2021/05/31 08:35:42;;;;;;;3.67;1.40;;;;;;;24.25;24.93;99246.50;4905427;29;20032;-74
2021/05/31 08:38:08;;;;;;;4.10;1.17;;;;;;;27.08;23.31;99238.50;4900401;29;20053;-74
2021/05/31 08:40:34;;;;;;;3.38;1.50;;;;;;;26.62;23.24;99237.56;4903452;29;20025;-74
2021/05/31 08:42:59;;;;;;;2.40;1.48;;;;;;;23.75;25.07;99242.75;4901093;29;20430;-74
2021/05/31 08:45:28;;;;;;;1.30;1.17;;;;;;;27.12;21.75;99239.91;4903558;29;20035;-73
2021/05/31 08:47:56;;;;;;;3.47;1.33;;;;;;;26.40;23.05;99233.00;4899879;29;20031;-74
2021/05/31 08:50:25;;;;;;;3.17;1.40;;;;;;;23.59;24.43;99247.28;4904035;29;20028;-74
2021/05/31 08:52:53;;;;;;;3.63;1.40;;;;;;;25.36;24.48;99245.13;4902491;29;20508;-73
2021/05/31 08:55:21;;;;;;;2.17;1.65;;;;;;;22.14;25.82;99253.47;4899182;29;20036;-74
2021/05/31 08:57:49;;;;;;;1.80;1.38;;;;;;;22.07;26.83;99255.59;4901169;29;20043;-73
2021/05/31 09:00:17;;;;;;;1.45;1.23;;;;;;;22.66;25.85;99251.25;4904998;29;20028;-73
2021/05/31 09:02:42;;;;;;;1.83;1.38;;;;;;;23.92;26.07;99241.66;4904275;29;20031;-73
2021/05/31 09:05:09;;;;;;;1.63;1.30;;;;;;;23.78;25.95;99245.19;4902126;29;20024;-73
2021/05/31 09:07:35;;;;;;;4.18;1.20;;;;;;;26.68;22.99;99228.25;4905093;29;20032;-73
2021/05/31 09:10:02;;;;;;;1.33;1.08;;;;;;;27.88;21.81;99238.25;4900281;29;20028;-74
2021/05/31 09:12:31;;;;;;;6.53;1.50;;;;;;;27.43;21.30;99238.34;4905303;29;20024;-74
2021/05/31 09:15:01;;;;;;;3.03;1.25;;;;;;;25.86;23.54;99237.97;4906434;29;20107;-74
2021/05/31 09:17:28;;;;;;;1.40;1.27;;;;;;;26.51;21.44;99234.88;4903755;29;20095;-74
2021/05/31 09:19:54;;;;;;;2.17;1.63;;;;;;;25.38;22.48;99227.25;4902732;29;20055;-74
2021/05/31 09:22:20;;;;;;;4.10;1.23;;;;;;;26.38;22.36;99228.75;4903894;29;20110;-74
2021/05/31 09:25:22;;;;;;;3.80;1.58;;;;;;;25.29;22.58;99223.50;4902388;29;20028;-74
2021/05/31 09:27:52;;;;;;;1.30;1.20;;;;;;;23.41;24.19;99227.31;4894914;29;20035;-74
2021/05/31 09:30:18;;;;;;;2.35;1.40;;;;;;;23.53;25.25;99229.16;4904552;29;20033;-74
2021/05/31 09:32:51;;;;;;;1.23;1.08;;;;;;;23.24;25.45;99234.50;4904228;29;20029;-74
2021/05/31 09:35:21;;;;;;;1.42;1.33;;;;;;;25.24;23.42;99220.31;4894754;29;20465;-74
2021/05/31 09:37:48;;;;;;;1.88;1.33;;;;;;;23.30;25.99;99231.47;4900570;29;20036;-74
2021/05/31 09:40:26;;;;;;;3.05;1.67;;;;;;;24.07;25.89;99231.84;4892062;29;20032;-73
2021/05/31 09:42:57;;;;;;;3.97;1.30;;;;;;;24.86;25.91;99220.34;4897506;29;20032;-75
2021/05/31 09:45:23;;;;;;;6.05;1.48;;;;;;;26.07;22.61;99219.63;4899057;29;20461;-74
2021/05/31 09:47:49;;;;;;;5.55;1.38;;;;;;;23.75;24.43;99221.59;4901415;29;20059;-74
2021/05/31 09:50:25;;;;;;;3.92;1.27;;;;;;;24.58;25.32;99222.22;4903956;29;20088;-75
2021/05/31 09:53:12;;;;;;;2.70;1.58;;;;;;;21.78;26.37;99221.16;4898079;29;20043;-76
2021/05/31 09:55:46;;;;;;;2.95;1.20;;;;;;;22.78;26.48;99213.53;4893835;29;20036;-74
2021/05/31 09:58:14;;;;;;;2.30;1.40;;;;;;;24.42;23.80;99204.81;4902523;29;20071;-74
2021/05/31 10:00:46;;;;;;;2.75;1.80;;;;;;;24.92;24.53;99198.69;4903384;29;20028;-74
2021/05/31 10:03:34;;;;;;;5.60;1.42;;;;;;;25.45;24.06;99211.78;4900260;29;20684;-74
2021/05/31 10:10:56;;;;;;;6.65;1.67;;;;;;;23.94;24.46;99210.66;4899055;29;20037;-74
2021/05/31 10:13:23;;;;;;;2.00;1.65;;;;;;;24.98;24.16;99194.75;4901879;29;20017;-74
2021/05/31 10:15:49;;;;;;;4.40;1.25;;;;;;;24.02;25.31;99199.53;4902164;29;20433;-74
2021/05/31 10:18:16;;;;;;;6.07;1.50;;;;;;;22.52;26.97;99201.88;4904049;29;20032;-74
2021/05/31 10:20:43;;;;;;;3.58;1.08;;;;;;;25.34;23.54;99184.22;4901918;29;20054;-74
2021/05/31 10:23:10;;;;;;;2.47;1.42;;;;;;;26.84;21.59;99188.88;4900874;29;20520;-74
2021/05/31 10:25:40;;;;;;;6.00;1.33;;;;;;;25.34;23.60;99189.53;4902671;29;20032;-74
2021/05/31 10:28:09;;;;;;;2.05;1.40;;;;;;;25.00;22.78;99185.75;4899949;29;20462;-74
2021/05/31 10:31:01;;;;;;;3.05;1.20;;;;;;;25.66;22.77;99188.97;4906405;29;20114;-74
2021/05/31 10:33:28;;;;;;;3.30;1.30;;;;;;;25.31;23.04;99184.41;4904555;29;20029;-76
2021/05/31 10:35:55;;;;;;;1.48;1.38;;;;;;;25.04;22.95;99175.75;4910104;29;20032;-77
2021/05/31 10:38:23;;;;;;;2.63;1.20;;;;;;;24.77;23.22;99178.56;4900640;29;20706;-75
2021/05/31 10:40:53;;;;;;;1.85;1.50;;;;;;;25.88;21.77;99186.47;4901601;29;20021;-77
2021/05/31 10:43:21;;;;;;;1.48;1.15;;;;;;;23.96;24.83;99187.56;4897959;29;20020;-74
2021/05/31 10:45:48;;;;;;;1.65;1.33;;;;;;;25.78;24.15;99177.50;4903158;29;20036;-75
2021/05/31 10:48:19;;;;;;;1.80;1.40;;;;;;;26.06;21.89;99180.72;4889881;29;20024;-74
2021/05/31 10:50:59;;;;;;;2.58;1.20;;;;;;;26.28;23.58;99179.94;4907818;29;20107;-74
2021/05/31 10:53:30;;;;;;;1.33;1.23;;;;;;;27.79;21.51;99181.28;4909512;29;20027;-75
2021/05/31 10:56:05;;;;;;;1.35;1.20;;;;;;;27.06;21.20;99176.53;4904096;29;20038;-75
2021/05/31 10:58:37;;;;;;;1.30;1.20;;;;;;;26.69;22.36;99174.13;4908857;29;20024;-75
2021/05/31 11:01:08;;;;;;;4.47;1.40;;;;;;;24.80;23.11;99184.50;4895703;29;20025;-75
2021/05/31 11:04:01;;;;;;;1.20;1.00;;;;;;;26.85;22.62;99179.94;4903955;29;20036;-75
2021/05/31 11:06:29;;;;;;;1.50;1.23;;;;;;;24.82;23.35;99171.97;4886541;29;20029;-75
2021/05/31 11:09:03;;;;;;;5.05;1.20;;;;;;;23.78;24.21;99181.66;4888280;29;20220;-74
2021/05/31 11:11:41;;;;;;;2.17;1.30;;;;;;;25.28;23.29;99174.03;4888822;29;20399;-75
2021/05/31 11:14:09;;;;;;;1.83;1.30;;;;;;;24.60;23.71;99167.31;4888321;29;20049;-74
2021/05/31 11:16:36;;;;;;;3.10;1.38;;;;;;;25.52;23.29;99170.56;4888194;29;20032;-74
2021/05/31 11:19:06;;;;;;;2.63;1.23;;;;;;;25.47;22.61;99172.69;4888174;29;20046;-74
2021/05/31 11:21:41;;;;;;;3.33;1.50;;;;;;;24.38;22.94;99182.16;4888855;29;20040;-75
2021/05/31 11:24:09;;;;;;;3.55;1.42;;;;;;;25.90;22.70;99167.75;4887205;29;20075;-75
2021/05/31 11:26:41;;;;;;;5.78;1.58;;;;;;;26.79;23.79;99172.44;4888503;29;20490;-75
2021/05/31 11:29:08;;;;;;;1.90;1.20;;;;;;;27.74;20.36;99172.81;4888367;29;20730;-75
2021/05/31 11:31:37;;;;;;;2.70;1.05;;;;;;;24.26;23.57;99182.00;4889750;29;20029;-75
2021/05/31 11:34:03;;;;;;;2.33;1.30;;;;;;;24.49;23.01;99179.63;4887153;29;20099;-75
2021/05/31 11:36:30;;;;;;;3.38;1.20;;;;;;;23.70;23.54;99181.34;4888098;29;20040;-75
2021/05/31 11:38:55;;;;;;;1.58;1.30;;;;;;;24.57;24.04;99174.66;4886286;29;20040;-74
2021/05/31 11:41:38;;;;;;;2.17;1.52;;;;;;;24.97;23.75;99158.59;4889483;29;20024;-75
2021/05/31 11:44:04;;;;;;;2.40;1.40;;;;;;;24.26;23.19;99173.22;4886524;29;20028;-75
2021/05/31 11:46:29;;;;;;;4.13;1.25;;;;;;;26.25;22.94;99162.41;4887911;29;20036;-75
2021/05/31 11:49:05;;;;;;;1.77;1.48;;;;;;;23.85;23.89;99169.75;4889578;29;20080;-75
2021/05/31 11:51:30;;;;;;;2.88;1.42;;;;;;;23.60;24.63;99161.69;4886933;29;20403;-74
2021/05/31 11:53:55;;;;;;;2.50;1.52;;;;;;;22.83;26.14;99163.06;4888077;29;20071;-75
2021/05/31 11:56:30;;;;;;;2.67;1.45;;;;;;;22.76;27.28;99157.28;4886477;29;20049;-75
2021/05/31 11:58:55;;;;;;;1.90;1.40;;;;;;;22.28;27.10;99156.69;4886532;29;20033;-74
2021/05/31 12:01:21;;;;;;;2.03;1.70;;;;;;;21.80;26.97;99153.31;4886566;29;20039;-74
2021/05/31 12:03:46;;;;;;;1.83;1.25;;;;;;;21.38;27.90;99147.88;4888177;29;20044;-74
2021/05/31 12:06:13;;;;;;;2.17;1.48;;;;;;;21.21;28.51;99157.53;4885893;29;20040;-74
2021/05/31 12:08:38;;;;;;;2.10;1.48;;;;;;;21.12;29.44;99158.03;4887419;29;20040;-75
2021/05/31 12:11:04;;;;;;;2.28;1.73;;;;;;;21.76;28.55;99154.47;4882973;29;20708;-75
2021/05/31 12:13:33;;;;;;;1.40;1.30;;;;;;;21.13;28.95;99159.75;4884007;29;20028;-75
2021/05/31 12:15:59;;;;;;;2.05;1.75;;;;;;;20.79;29.12;99155.44;4888623;29;20037;-74
2021/05/31 12:18:26;;;;;;;3.42;1.60;;;;;;;21.02;27.70;99156.84;4887006;29;20037;-75
2021/05/31 12:21:00;;;;;;;2.72;1.60;;;;;;;21.48;27.28;99143.78;4884640;29;20021;-74
2021/05/31 12:23:25;;;;;;;1.50;1.40;;;;;;;22.14;27.62;99132.91;4886286;29;20032;-75
2021/05/31 12:25:52;;;;;;;6.32;1.70;;;;;;;21.97;27.41;99143.59;4885650;29;20052;-74
2021/05/31 12:28:21;;;;;;;2.35;1.65;;;;;;;21.72;29.39;99147.66;4885493;29;20508;-77
2021/05/31 12:30:48;;;;;;;2.05;1.85;;;;;;;21.27;30.29;99135.25;4887124;29;20040;-78
2021/05/31 12:33:14;;;;;;;5.45;1.73;;;;;;;22.02;29.33;99133.59;4885953;29;20080;-77
2021/05/31 12:35:46;;;;;;;3.22;1.90;;;;;;;21.39;30.73;99133.75;4887748;29;20044;-77
2021/05/31 12:38:12;;;;;;;1.88;1.60;;;;;;;21.02;28.99;99135.75;4887258;29;20034;-78
2021/05/31 12:40:41;;;;;;;3.75;2.17;;;;;;;21.19;28.26;99133.06;4886801;29;20040;-77
2021/05/31 12:43:08;;;;;;;;;;;;;;;21.56;28.23;99120.44;4885118;29;20045;-77
2021/05/31 12:45:41;;;;;;;2.25;1.58;;;;;;;21.23;29.60;99121.41;4887398;29;20077;-78
2021/05/31 12:48:21;;;;;;;2.20;1.75;;;;;;;21.23;29.34;99125.84;4886757;29;20033;-77
2021/05/31 12:50:56;;;;;;;1.75;1.65;;;;;;;21.10;31.62;99109.84;4885191;29;20028;-78
2021/05/31 12:53:25;;;;;;;4.05;1.77;;;;;;;21.91;30.09;99114.94;4886215;29;20035;-77
2021/05/31 12:55:51;;;;;;;2.30;1.75;;;;;;;21.77;30.54;99108.66;4885220;29;20446;-77
2021/05/31 12:58:21;;;;;;;3.97;2.20;;;;;;;21.58;31.15;99108.03;4867763;29;20163;-78
2021/05/31 13:00:46;;;;;;;1.85;1.63;;;;;;;21.66;31.56;99104.94;4886358;29;20032;-78
2021/05/31 13:03:14;;;;;;;2.22;1.88;;;;;;;21.48;30.41;99106.88;4887057;29;21043;-78
2021/05/31 13:05:41;;;;;;;2.00;1.88;;;;;;;21.41;31.64;99097.59;4886048;29;20521;-77
2021/05/31 13:08:10;;;;;;;2.70;1.60;;;;;;;21.63;30.03;99095.44;4884439;29;20041;-74
2021/05/31 13:10:39;;;;;;;1.50;1.40;;;;;;;21.61;30.87;99097.28;4885467;29;20443;-76
2021/05/31 13:13:08;;;;;;;2.43;1.93;;;;;;;21.75;29.95;99094.69;4884872;29;20115;-74
2021/05/31 13:15:47;;;;;;;2.67;1.75;;;;;;;21.96;30.10;99091.75;4885134;29;20036;-76
2021/05/31 13:18:29;;;;;;;4.28;2.08;;;;;;;21.32;30.94;99092.84;4885698;29;20028;-74
2021/05/31 13:20:55;;;;;;;2.85;1.85;;;;;;;21.45;31.92;99091.22;4887369;29;20036;-77
2021/05/31 13:23:27;;;;;;;3.58;2.60;;;;;;;21.58;30.53;99091.38;4886691;29;20036;-74
2021/05/31 13:25:56;;;;;;;2.63;1.70;;;;;;;21.89;31.26;99095.69;4885833;29;20038;-77
2021/05/31 13:28:35;;;;;;;2.25;1.60;;;;;;;21.93;30.76;99081.38;4885594;29;20040;-77
2021/05/31 13:31:03;;;;;;;6.90;1.63;;;;;;;21.45;31.15;99085.94;4885234;29;20067;-77
2021/05/31 13:33:31;;;;;;;4.28;1.90;;;;;;;21.37;30.38;99088.16;4885210;29;20035;-74
2021/05/31 13:35:59;;;;;;;2.15;1.75;;;;;;;21.51;29.69;99080.31;4886058;29;20413;-74
2021/05/31 13:38:29;;;;;;;5.65;1.85;;;;;;;21.33;29.98;99076.13;4885362;29;20028;-74
2021/05/31 13:40:56;;;;;;;2.70;1.73;;;;;;;21.66;29.58;99074.16;4883957;29;20100;-78
2021/05/31 13:43:26;;;;;;;2.15;1.50;;;;;;;22.01;29.91;99071.22;4886614;29;20036;-78
2021/05/31 13:45:58;;;;;;;3.33;1.83;;;;;;;22.47;31.11;99060.50;4887230;29;20599;-78
2021/05/31 13:48:25;;;;;;;3.10;2.05;;;;;;;22.87;29.45;99071.19;4883519;29;20036;-77
2021/05/31 13:50:53;;;;;;;1.83;1.67;;;;;;;22.15;29.55;99060.72;4885912;29;20033;-73
2021/05/31 13:53:19;;;;;;;1.70;1.60;;;;;;;21.56;29.56;99059.78;4884291;29;20804;-75
2021/05/31 13:55:44;;;;;;;2.90;1.75;;;;;;;21.94;29.55;99064.59;4868563;29;20042;-74
2021/05/31 13:58:13;;;;;;;3.75;1.73;;;;;;;21.59;29.33;99062.25;4886858;29;20122;-74
2021/05/31 14:00:39;;;;;;;1.83;1.60;;;;;;;21.95;29.79;99058.38;4886390;29;20068;-73
2021/05/31 14:03:05;;;;;;;6.13;1.65;;;;;;;21.97;29.29;99056.50;4884957;29;20162;-74
2021/05/31 14:05:34;;;;;;;3.70;1.50;;;;;;;21.88;28.85;99052.63;4883249;29;20169;-74
2021/05/31 14:08:00;;;;;;;1.50;1.40;;;;;;;21.68;28.05;99048.53;4890318;29;20059;-73
2021/05/31 14:10:27;;;;;;;2.10;1.90;;;;;;;21.71;28.79;99045.72;4873255;29;20292;-74
2021/05/31 14:12:54;;;;;;;1.60;1.50;;;;;;;21.88;30.15;99042.06;4890786;29;20032;-74
2021/05/31 14:15:21;;;;;;;1.70;1.52;;;;;;;21.81;30.47;99038.97;4888085;29;20035;-74
2021/05/31 14:17:47;;;;;;;1.60;1.45;;;;;;;21.75;29.46;99041.94;4887796;29;20115;-75
2021/05/31 14:20:15;;;;;;;4.15;1.90;;;;;;;21.88;30.41;99035.94;4888916;29;20027;-74
2021/05/31 14:22:41;;;;;;;2.75;1.90;;;;;;;21.74;29.99;99040.25;4888116;29;20069;-75
2021/05/31 14:25:09;;;;;;;1.92;1.80;;;;;;;21.99;30.01;99034.34;4888593;29;20385;-75
2021/05/31 14:27:34;;;;;;;7.63;6.30;;;;;;;22.63;29.31;99034.84;4887404;29;20028;-75
2021/05/31 14:30:00;;;;;;;2.78;2.00;;;;;;;22.13;30.03;99030.91;4886303;29;20036;-75
2021/05/31 14:32:26;;;;;;;2.20;1.65;;;;;;;22.32;30.36;99033.25;4887734;29;20036;-75
2021/05/31 14:34:52;;;;;;;3.70;1.33;;;;;;;22.46;28.58;99025.34;4887808;29;20126;-74
2021/05/31 14:37:17;;;;;;;1.50;1.40;;;;;;;21.61;29.03;99027.88;4888935;29;20037;-74
2021/05/31 14:39:43;;;;;;;4.10;1.88;;;;;;;21.53;29.37;99031.84;4888755;29;20033;-74
2021/05/31 14:42:09;;;;;;;1.75;1.40;;;;;;;21.95;30.43;99022.31;4888193;29;20028;-74
2021/05/31 14:44:35;;;;;;;5.15;1.77;;;;;;;21.73;29.74;99027.16;4888323;29;20077;-74
2021/05/31 14:47:00;;;;;;;1.67;1.58;;;;;;;21.89;29.86;99021.81;4888917;29;20028;-74
2021/05/31 14:49:26;;;;;;;3.15;1.30;;;;;;;21.88;30.03;99025.41;4890373;29;20265;-74
2021/05/31 14:51:53;;;;;;;3.75;1.70;;;;;;;22.02;29.02;99020.13;4887991;29;20091;-74
2021/05/31 14:54:19;;;;;;;2.00;1.60;;;;;;;22.48;29.02;99014.66;4889526;29;20028;-75
2021/05/31 14:56:44;;;;;;;2.13;1.65;;;;;;;21.86;29.32;99024.66;4887855;29;20025;-75
2021/05/31 14:59:10;;;;;;;2.10;1.65;;;;;;;21.98;29.46;99018.63;4888009;29;20041;-75
2021/05/31 15:01:36;;;;;;;2.05;1.73;;;;;;;21.98;28.76;99015.97;4888264;29;20067;-75
2021/05/31 15:04:01;;;;;;;5.35;1.50;;;;;;;22.06;29.41;99019.00;4888536;29;20462;-74
2021/05/31 15:06:26;;;;;;;1.73;1.63;;;;;;;22.38;28.05;99018.81;4888511;29;20040;-76
2021/05/31 15:08:52;;;;;;;2.03;1.33;;;;;;;22.01;27.89;99013.16;4887908;29;20055;-75
2021/05/31 15:11:18;;;;;;;4.50;1.45;;;;;;;21.35;30.02;99013.59;4887446;29;20426;-75
2021/05/31 15:13:44;;;;;;;1.70;1.58;;;;;;;21.70;28.62;99017.63;4888217;29;20062;-75
2021/05/31 15:16:09;;;;;;;3.50;1.88;;;;;;;22.13;28.58;99004.50;4887884;29;20032;-75
2021/05/31 15:18:35;;;;;;;4.63;1.80;;;;;;;21.74;29.43;99019.16;4888576;29;20024;-75
2021/05/31 15:21:00;;;;;;;1.70;1.40;;;;;;;21.74;29.68;99013.88;4887046;29;20024;-75
2021/05/31 15:23:25;;;;;;;2.17;1.60;;;;;;;21.77;29.27;99008.44;4889408;29;20120;-75
2021/05/31 15:25:51;;;;;;;4.00;1.42;;;;;;;21.66;29.54;99015.25;4888830;29;20029;-74
2021/05/31 15:28:16;;;;;;;1.30;1.20;;;;;;;21.98;28.12;99016.81;4887034;29;20035;-75
2021/05/31 15:30:42;;;;;;;3.28;1.92;;;;;;;22.01;29.47;99021.09;4887895;29;20612;-75
2021/05/31 15:33:07;;;;;;;2.55;1.60;;;;;;;22.35;27.88;99013.75;4889239;29;20079;-75
2021/05/31 15:35:33;;;;;;;2.38;1.30;;;;;;;22.18;28.46;99015.63;4885959;29;20040;-76
2021/05/31 15:37:58;;;;;;;2.00;1.80;;;;;;;22.24;27.96;99007.34;4886217;29;20036;-75
2021/05/31 15:40:24;;;;;;;1.80;1.60;;;;;;;22.37;27.29;99006.56;4887563;29;20052;-75
2021/05/31 15:42:50;;;;;;;7.85;1.33;;;;;;;21.58;29.65;99006.97;4884722;29;20036;-78
2021/05/31 15:45:17;;;;;;;1.63;1.50;;;;;;;21.94;28.65;99003.91;4886089;29;20402;-78
2021/05/31 15:47:44;;;;;;;5.70;1.40;;;;;;;22.13;28.50;98999.22;4887069;29;20032;-79
2021/05/31 15:50:12;;;;;;;5.82;1.42;;;;;;;22.15;28.88;98997.38;4887390;29;20044;-78
2021/05/31 15:52:37;;;;;;;1.92;1.40;;;;;;;21.91;28.43;98993.56;4889272;29;20119;-78
2021/05/31 15:55:07;;;;;;;2.35;1.30;;;;;;;22.06;28.88;99003.19;4887941;29;20119;-77
2021/05/31 15:57:33;;;;;;;4.53;1.63;;;;;;;22.13;28.92;98993.09;4886690;29;20088;-77
2021/05/31 15:59:59;;;;;;;6.43;1.63;;;;;;;21.90;29.55;98991.84;4887119;29;20115;-73